createdAt,value
2019-03-26T00:00:33.785Z,6.03
2019-03-26T00:03:03.207Z,4.90
2019-03-26T00:05:32.645Z,4.97
2019-03-26T00:08:02.078Z,5.87
2019-03-26T00:10:31.517Z,6.00
2019-03-26T00:13:00.943Z,5.27
2019-03-26T00:15:30.379Z,5.07
2019-03-26T00:17:59.819Z,5.57
2019-03-26T00:20:29.253Z,5.70
2019-03-26T00:22:58.754Z,5.47
2019-03-26T00:25:28.192Z,5.23
2019-03-26T00:27:57.627Z,5.07
2019-03-26T00:30:27.064Z,5.47
2019-03-26T00:32:56.483Z,4.83
2019-03-26T00:35:25.949Z,5.23
2019-03-26T00:37:55.362Z,5.13
2019-03-26T00:40:24.799Z,4.90
2019-03-26T00:42:54.223Z,4.90
2019-03-26T00:45:23.660Z,4.30
2019-03-26T00:47:53.087Z,5.17
2019-03-26T00:50:22.531Z,4.63
2019-03-26T00:52:51.969Z,5.13
2019-03-26T00:55:22.985Z,4.97
2019-03-26T00:57:52.799Z,4.63
2019-03-26T01:00:36.030Z,4.73
2019-03-26T01:03:06.001Z,4.63
2019-03-26T01:05:35.443Z,4.20
2019-03-26T01:08:04.938Z,4.30
2019-03-26T01:10:34.431Z,4.47
2019-03-26T01:13:04.278Z,4.90
2019-03-26T01:15:33.988Z,4.80
2019-03-26T01:18:03.415Z,4.93
2019-03-26T01:20:32.859Z,4.60
2019-03-26T01:23:02.295Z,4.37
2019-03-26T01:25:31.740Z,4.07
2019-03-26T01:28:01.180Z,4.77
2019-03-26T01:30:30.615Z,4.40
2019-03-26T01:33:00.067Z,4.07
2019-03-26T01:35:29.503Z,4.30
2019-03-26T01:37:58.941Z,4.60
2019-03-26T01:40:28.417Z,4.53
2019-03-26T01:42:57.822Z,5.17
2019-03-26T01:45:27.245Z,4.63
2019-03-26T01:47:56.675Z,4.60
2019-03-26T01:50:26.105Z,4.47
2019-03-26T01:52:55.539Z,4.50
2019-03-26T01:55:25.036Z,4.37
2019-03-26T01:57:54.472Z,4.80
2019-03-26T02:00:23.967Z,5.20
2019-03-26T02:02:53.409Z,5.37
2019-03-26T02:05:22.837Z,5.13
2019-03-26T02:07:52.262Z,5.27
2019-03-26T02:10:21.692Z,5.50
2019-03-26T02:12:51.128Z,4.93
2019-03-26T02:15:30.048Z,4.93
2019-03-26T02:18:00.132Z,5.50
2019-03-26T02:20:29.622Z,4.80
2019-03-26T02:22:59.128Z,5.30
2019-03-26T02:25:28.557Z,4.70
2019-03-26T02:27:58.167Z,5.33
2019-03-26T02:30:27.578Z,5.17
2019-03-26T02:32:57.014Z,4.87
2019-03-26T02:35:26.434Z,5.70
2019-03-26T02:37:55.944Z,5.43
2019-03-26T02:40:25.370Z,5.23
2019-03-26T02:42:54.820Z,5.80
2019-03-26T02:45:24.310Z,5.43
2019-03-26T02:47:53.749Z,5.50
2019-03-26T02:50:23.182Z,5.77
2019-03-26T02:52:52.616Z,5.73
2019-03-26T02:55:22.036Z,5.93
2019-03-26T02:57:51.701Z,5.20
2019-03-26T03:00:21.366Z,5.80
2019-03-26T03:02:50.800Z,6.13
2019-03-26T03:05:34.238Z,5.97
2019-03-26T03:07:51.414Z,5.70
2019-03-26T03:10:21.241Z,5.67
2019-03-26T03:12:50.680Z,5.60
2019-03-26T03:15:20.194Z,5.53
2019-03-26T03:17:49.961Z,5.53
2019-03-26T03:20:19.574Z,5.33
2019-03-26T03:22:48.991Z,5.50
2019-03-26T03:25:18.407Z,5.93
2019-03-26T03:27:47.847Z,5.90
2019-03-26T03:30:17.888Z,5.97
2019-03-26T03:32:47.346Z,5.53
2019-03-26T03:35:16.834Z,6.53
2019-03-26T03:37:46.273Z,6.47
2019-03-26T03:40:15.844Z,7.13
2019-03-26T03:42:45.421Z,6.93
2019-03-26T03:45:18.297Z,7.40
2019-03-26T03:47:48.379Z,7.30
2019-03-26T03:50:17.898Z,7.80
2019-03-26T03:52:48.056Z,8.30
2019-03-26T03:55:17.759Z,8.23
2019-03-26T03:57:52.829Z,7.40
2019-03-26T04:00:40.472Z,7.10
2019-03-26T04:03:10.426Z,8.10
2019-03-26T04:05:40.097Z,8.23
2019-03-26T04:08:09.550Z,8.57
2019-03-26T04:10:38.982Z,8.40
2019-03-26T04:13:08.711Z,9.03
2019-03-26T04:15:38.205Z,8.10
2019-03-26T04:18:07.708Z,7.47
2019-03-26T04:20:37.144Z,7.57
2019-03-26T04:23:07.024Z,7.30
2019-03-26T04:25:36.736Z,7.30
2019-03-26T04:28:06.174Z,8.10
2019-03-26T04:30:35.752Z,7.13
2019-03-26T04:33:05.315Z,7.03
2019-03-26T04:35:34.768Z,7.60
2019-03-26T04:38:04.265Z,7.47
2019-03-26T04:40:33.706Z,7.27
2019-03-26T04:43:03.141Z,8.03
2019-03-26T04:45:32.584Z,8.20
2019-03-26T04:48:02.027Z,7.83
2019-03-26T04:50:31.719Z,7.50
2019-03-26T04:53:01.226Z,8.30
2019-03-26T04:55:30.663Z,8.27
2019-03-26T04:58:00.098Z,7.87
2019-03-26T05:00:29.540Z,8.00
2019-03-26T05:02:58.980Z,8.20
2019-03-26T05:05:28.497Z,8.27
2019-03-26T05:07:58.271Z,7.63
2019-03-26T05:10:27.718Z,8.53
2019-03-26T05:12:57.152Z,9.00
2019-03-26T05:15:26.598Z,8.27
2019-03-26T05:17:56.820Z,8.07
2019-03-26T05:20:26.539Z,8.50
2019-03-26T05:22:55.975Z,7.60
2019-03-26T05:25:25.428Z,7.73
2019-03-26T05:27:54.863Z,8.00
2019-03-26T05:30:24.319Z,7.53
2019-03-26T05:32:53.762Z,7.47
2019-03-26T05:35:23.208Z,8.57
2019-03-26T05:37:52.650Z,8.00
2019-03-26T05:40:22.099Z,8.67
2019-03-26T05:42:51.529Z,8.07
2019-03-26T05:45:20.979Z,7.97
2019-03-26T05:47:50.415Z,8.43
2019-03-26T05:50:19.879Z,8.33
2019-03-26T05:52:49.324Z,8.47
2019-03-26T05:55:18.767Z,8.43
2019-03-26T05:57:48.210Z,8.63
2019-03-26T06:00:19.512Z,8.37
2019-03-26T06:02:48.951Z,8.77
2019-03-26T06:05:18.392Z,8.17
2019-03-26T06:07:47.835Z,8.07
2019-03-26T06:10:17.475Z,9.20
2019-03-26T06:12:50.072Z,8.73
2019-03-26T06:15:18.095Z,7.70
2019-03-26T06:17:47.525Z,8.47
2019-03-26T06:20:17.039Z,8.90
2019-03-26T06:22:46.543Z,8.43
2019-03-26T06:25:15.998Z,8.23
2019-03-26T06:27:45.421Z,8.40
2019-03-26T06:30:15.269Z,8.57
2019-03-26T06:32:44.703Z,7.70
2019-03-26T06:35:14.279Z,8.27
2019-03-26T06:37:43.719Z,8.53
2019-03-26T06:40:13.969Z,8.43
2019-03-26T06:42:43.403Z,8.27
2019-03-26T06:45:14.128Z,8.53
2019-03-26T06:47:43.565Z,8.37
2019-03-26T06:50:13.722Z,8.50
2019-03-26T06:52:43.154Z,9.37
2019-03-26T06:55:13.044Z,8.07
2019-03-26T06:57:42.485Z,7.97
2019-03-26T07:00:15.539Z,7.90
2019-03-26T07:02:45.399Z,8.13
2019-03-26T07:05:15.106Z,8.03
2019-03-26T07:07:44.610Z,8.37
2019-03-26T07:10:16.314Z,8.87
2019-03-26T07:12:45.767Z,8.27
2019-03-26T07:15:15.374Z,8.93
2019-03-26T07:17:44.820Z,8.20
2019-03-26T07:20:15.420Z,8.63
2019-03-26T07:22:44.888Z,7.93
2019-03-26T07:25:14.338Z,8.43
2019-03-26T07:27:43.782Z,8.90
2019-03-26T07:30:22.479Z,8.73
2019-03-26T07:32:51.914Z,7.90
2019-03-26T07:35:21.693Z,8.27
2019-03-26T07:37:51.136Z,8.67
2019-03-26T07:40:20.595Z,8.07
2019-03-26T07:42:50.030Z,8.77
2019-03-26T07:45:19.472Z,8.43
2019-03-26T07:47:48.978Z,8.90
2019-03-26T07:50:18.514Z,8.30
2019-03-26T07:52:47.961Z,8.20
2019-03-26T07:55:17.403Z,8.20
2019-03-26T07:57:46.852Z,8.53
2019-03-26T08:00:18.497Z,8.27
2019-03-26T08:02:47.939Z,9.03
2019-03-26T08:05:29.280Z,7.67
2019-03-26T08:07:58.357Z,8.33
2019-03-26T08:10:19.716Z,9.07
2019-03-26T08:12:49.189Z,8.83
2019-03-26T08:15:20.266Z,8.50
2019-03-26T08:17:49.790Z,8.67
2019-03-26T08:20:19.310Z,8.33
2019-03-26T08:22:48.756Z,8.00
2019-03-26T08:25:18.198Z,8.33
2019-03-26T08:27:47.650Z,8.53
2019-03-26T08:30:17.148Z,8.57
2019-03-26T08:32:46.614Z,8.50
2019-03-26T08:35:16.051Z,7.07
2019-03-26T08:37:45.494Z,8.03
2019-03-26T08:40:15.411Z,8.60
2019-03-26T08:42:45.123Z,7.13
2019-03-26T08:45:15.297Z,8.07
2019-03-26T08:47:44.753Z,7.77
2019-03-26T08:50:14.394Z,8.13
2019-03-26T08:52:43.849Z,8.07
2019-03-26T08:55:14.323Z,8.17
2019-03-26T08:57:43.770Z,7.97
2019-03-26T09:00:14.113Z,7.73
2019-03-26T09:02:45.161Z,7.77
2019-03-26T09:05:15.075Z,7.70
2019-03-26T09:07:44.559Z,7.57
2019-03-26T09:10:15.605Z,8.00
2019-03-26T09:12:45.183Z,7.23
2019-03-26T09:15:14.963Z,7.37
2019-03-26T09:17:44.931Z,7.67
2019-03-26T09:20:15.130Z,7.73
2019-03-26T09:22:44.574Z,6.90
2019-03-26T09:25:14.645Z,7.63
2019-03-26T09:27:44.105Z,7.63
2019-03-26T09:30:14.168Z,6.87
2019-03-26T09:32:44.065Z,7.70
2019-03-26T09:35:13.943Z,7.70
2019-03-26T09:37:43.392Z,8.47
2019-03-26T09:40:13.374Z,7.47
2019-03-26T09:42:42.825Z,7.93
2019-03-26T09:45:13.958Z,7.63
2019-03-26T09:47:43.407Z,7.73
2019-03-26T09:50:16.524Z,9.00
2019-03-26T09:52:45.970Z,8.13
2019-03-26T09:55:15.484Z,8.03
2019-03-26T09:57:44.931Z,8.17
2019-03-26T10:00:14.440Z,7.93
2019-03-26T10:02:43.888Z,8.77
2019-03-26T10:05:14.158Z,8.47
2019-03-26T10:07:43.615Z,8.73
2019-03-26T10:10:14.054Z,7.87
2019-03-26T10:12:43.746Z,7.77
2019-03-26T10:15:13.605Z,7.50
2019-03-26T10:17:43.058Z,8.40
2019-03-26T10:20:12.755Z,7.03
2019-03-26T10:22:42.206Z,6.90
2019-03-26T10:25:12.377Z,7.33
2019-03-26T10:27:41.835Z,7.57
2019-03-26T10:30:14.577Z,6.93
2019-03-26T10:32:44.044Z,7.50
2019-03-26T10:35:13.746Z,7.07
2019-03-26T10:37:43.197Z,7.63
2019-03-26T10:40:17.355Z,6.30
2019-03-26T10:42:47.053Z,5.80
2019-03-26T10:45:16.571Z,5.47
2019-03-26T10:47:46.032Z,5.70
2019-03-26T10:50:15.463Z,5.70
2019-03-26T10:52:44.902Z,6.50
2019-03-26T10:55:14.351Z,6.17
2019-03-26T10:57:43.781Z,6.20
2019-03-26T11:00:13.776Z,6.20
2019-03-26T11:02:43.202Z,6.40
2019-03-26T11:05:13.002Z,5.83
2019-03-26T11:07:42.936Z,6.27
2019-03-26T11:10:13.150Z,6.67
2019-03-26T11:12:42.562Z,7.73
2019-03-26T11:15:13.248Z,6.50
2019-03-26T11:17:42.693Z,6.70
2019-03-26T11:20:12.952Z,6.17
2019-03-26T11:22:42.401Z,5.83
2019-03-26T11:25:12.560Z,6.13
2019-03-26T11:27:42.075Z,5.40
2019-03-26T11:30:11.779Z,5.80
2019-03-26T11:32:41.272Z,6.27
2019-03-26T11:35:11.472Z,5.53
2019-03-26T11:37:40.919Z,4.77
2019-03-26T11:40:10.849Z,6.10
2019-03-26T11:42:40.284Z,5.40
2019-03-26T11:45:10.744Z,5.77
2019-03-26T11:47:40.927Z,5.37
2019-03-26T11:50:11.821Z,5.37
2019-03-26T11:52:41.594Z,4.07
2019-03-26T11:55:12.044Z,3.70
2019-03-26T11:57:41.763Z,4.60
2019-03-26T12:00:15.486Z,3.97
2019-03-26T12:02:44.915Z,4.63
2019-03-26T12:05:14.506Z,4.00
2019-03-26T12:07:43.958Z,4.47
2019-03-26T12:10:14.049Z,4.90
2019-03-26T12:12:43.488Z,5.03
2019-03-26T12:15:13.567Z,4.67
2019-03-26T12:17:43.005Z,4.60
2019-03-26T12:20:12.522Z,4.43
2019-03-26T12:22:41.964Z,4.43
2019-03-26T12:25:12.073Z,4.33
2019-03-26T12:27:41.511Z,4.50
2019-03-26T12:30:11.115Z,4.60
2019-03-26T12:32:41.224Z,5.20
2019-03-26T12:35:15.598Z,5.10
2019-03-26T12:37:45.145Z,5.10
2019-03-26T12:40:14.680Z,4.80
2019-03-26T12:42:44.106Z,4.40
2019-03-26T12:45:15.202Z,4.03
2019-03-26T12:47:44.626Z,4.40
2019-03-26T12:50:14.072Z,3.80
2019-03-26T12:52:43.504Z,3.83
2019-03-26T12:55:12.958Z,3.53
2019-03-26T12:57:42.398Z,3.83
2019-03-26T13:00:12.092Z,4.00
2019-03-26T13:02:41.521Z,2.90
2019-03-26T13:05:11.542Z,2.97
2019-03-26T13:07:40.982Z,3.40
2019-03-26T13:10:13.981Z,2.57
2019-03-26T13:12:41.727Z,3.27
2019-03-26T13:15:11.239Z,2.60
2019-03-26T13:17:40.697Z,3.10
2019-03-26T13:20:10.372Z,3.00
2019-03-26T13:22:39.805Z,3.00
2019-03-26T13:25:10.390Z,3.07
2019-03-26T13:27:40.291Z,3.10
2019-03-26T13:30:17.799Z,3.30
2019-03-26T13:33:02.000Z,3.47
2019-03-26T13:35:42.690Z,2.80
2019-03-26T13:38:17.777Z,4.13
2019-03-26T13:40:59.789Z,3.20
2019-03-26T13:43:32.694Z,3.50
2019-03-26T13:46:09.993Z,3.40
2019-03-26T13:48:48.561Z,2.97
2019-03-26T13:51:19.108Z,3.30
2019-03-26T13:53:52.745Z,3.30
2019-03-26T13:56:28.941Z,2.73
2019-03-26T13:59:02.503Z,3.00
2019-03-26T14:01:38.027Z,2.90
2019-03-26T14:04:13.423Z,2.67
2019-03-26T14:06:45.962Z,2.63
2019-03-26T14:09:15.961Z,2.70
2019-03-26T14:11:45.435Z,2.43
2019-03-26T14:14:14.878Z,2.67
2019-03-26T14:16:44.328Z,2.50
2019-03-26T14:19:13.771Z,2.20
2019-03-26T14:21:43.226Z,2.40
2019-03-26T14:24:13.511Z,2.73
2019-03-26T14:26:43.006Z,2.73
2019-03-26T14:29:12.437Z,2.30
2019-03-26T14:31:41.887Z,2.67
2019-03-26T14:34:11.342Z,2.60
2019-03-26T14:36:41.116Z,2.10
2019-03-26T14:39:11.900Z,2.40
2019-03-26T14:41:41.446Z,2.73
2019-03-26T14:44:10.892Z,3.07
2019-03-26T14:46:40.348Z,3.10
2019-03-26T14:49:09.789Z,3.57
2019-03-26T14:51:39.241Z,3.80
2019-03-26T14:54:08.696Z,3.23
2019-03-26T14:56:38.625Z,3.07
2019-03-26T14:59:08.067Z,3.60
2019-03-26T15:01:37.536Z,2.90
2019-03-26T15:04:06.980Z,2.57
2019-03-26T15:06:36.435Z,3.37
2019-03-26T15:09:08.495Z,3.43
2019-03-26T15:11:37.999Z,3.73
2019-03-26T15:14:07.463Z,3.20
2019-03-26T15:16:36.909Z,3.47
2019-03-26T15:19:06.364Z,3.97
2019-03-26T15:21:36.179Z,3.90
2019-03-26T15:24:05.642Z,3.70
2019-03-26T15:26:35.090Z,4.10
2019-03-26T15:29:09.490Z,4.23
2019-03-26T15:31:39.947Z,3.90
2019-03-26T15:34:11.867Z,4.40
2019-03-26T15:36:41.864Z,3.73
2019-03-26T15:39:11.673Z,3.53
2019-03-26T15:41:43.890Z,4.13
2019-03-26T15:44:20.907Z,3.93
2019-03-26T15:46:53.577Z,3.47
2019-03-26T15:49:30.406Z,4.10
2019-03-26T15:51:59.477Z,4.13
2019-03-26T15:54:33.556Z,4.27
2019-03-26T15:57:06.708Z,4.50
2019-03-26T15:59:40.959Z,4.30
2019-03-26T16:02:15.376Z,4.67
2019-03-26T16:04:49.717Z,5.23
2019-03-26T16:07:22.280Z,5.47
2019-03-26T16:09:58.237Z,5.60
2019-03-26T16:12:40.593Z,5.63
2019-03-26T16:15:04.908Z,4.77
2019-03-26T16:17:38.165Z,5.17
2019-03-26T16:20:10.592Z,5.33
2019-03-26T16:22:42.756Z,5.47
2019-03-26T16:25:26.816Z,5.40
2019-03-26T16:27:59.732Z,5.37
2019-03-26T16:30:34.702Z,5.80
2019-03-26T16:33:06.995Z,6.47
2019-03-26T16:35:40.426Z,5.87
2019-03-26T16:38:14.022Z,7.03
2019-03-26T16:40:48.639Z,6.67
2019-03-26T16:43:22.035Z,7.07
2019-03-26T16:45:54.797Z,7.83
2019-03-26T16:48:27.939Z,7.07
2019-03-26T16:51:01.254Z,7.37
2019-03-26T16:53:36.166Z,6.83
2019-03-26T16:56:09.126Z,7.73
2019-03-26T16:58:42.705Z,8.17
2019-03-26T17:01:16.998Z,8.07
2019-03-26T17:03:50.255Z,7.60
2019-03-26T17:06:23.612Z,7.50
2019-03-26T17:08:58.642Z,7.03
2019-03-26T17:11:31.055Z,7.43
2019-03-26T17:14:03.645Z,7.70
2019-03-26T17:16:36.368Z,7.93
2019-03-26T17:19:08.704Z,7.40
2019-03-26T17:21:41.787Z,7.30
2019-03-26T17:24:14.031Z,7.10
2019-03-26T17:26:47.053Z,7.70
2019-03-26T17:29:19.032Z,7.10
2019-03-26T17:31:52.088Z,6.87
2019-03-26T17:34:23.738Z,7.17
2019-03-26T17:36:56.424Z,7.83
2019-03-26T17:39:31.634Z,7.53
2019-03-26T17:42:16.561Z,7.80
2019-03-26T17:44:37.827Z,7.77
2019-03-26T17:47:11.681Z,7.57
2019-03-26T17:49:45.710Z,7.23
2019-03-26T17:52:18.187Z,7.30
2019-03-26T17:54:49.071Z,7.17
2019-03-26T17:57:18.555Z,7.17
2019-03-26T17:59:48.074Z,6.53
2019-03-26T18:02:17.507Z,5.87
2019-03-26T18:04:46.967Z,6.90
2019-03-26T18:07:16.411Z,6.53
2019-03-26T18:09:45.839Z,6.30
2019-03-26T18:12:15.287Z,6.17
2019-03-26T18:14:44.727Z,6.30
2019-03-26T18:17:14.174Z,6.10
2019-03-26T18:19:43.612Z,5.90
2019-03-26T18:22:13.070Z,6.13
2019-03-26T18:24:42.517Z,6.13
2019-03-26T18:27:11.969Z,7.23
2019-03-26T18:29:41.405Z,6.37
2019-03-26T18:32:10.850Z,6.67
2019-03-26T18:34:40.286Z,5.93
2019-03-26T18:37:09.739Z,6.47
2019-03-26T18:39:39.180Z,6.23
2019-03-26T18:42:08.619Z,6.27
2019-03-26T18:44:38.063Z,6.07
2019-03-26T18:47:07.513Z,5.87
2019-03-26T18:49:36.951Z,5.93
2019-03-26T18:52:06.408Z,6.10
2019-03-26T18:54:35.848Z,6.40
2019-03-26T18:57:05.388Z,6.43
2019-03-26T18:59:35.103Z,6.43
2019-03-26T19:02:04.540Z,6.07
2019-03-26T19:04:33.977Z,6.10
2019-03-26T19:07:03.424Z,6.30
2019-03-26T19:09:32.869Z,7.27
2019-03-26T19:12:02.328Z,6.87
2019-03-26T19:14:31.767Z,6.57
2019-03-26T19:17:01.216Z,6.67
2019-03-26T19:19:30.661Z,6.73
2019-03-26T19:22:00.106Z,6.13
2019-03-26T19:24:29.539Z,6.63
2019-03-26T19:26:58.990Z,6.37
2019-03-26T19:29:28.435Z,6.10
2019-03-26T19:31:58.172Z,6.97
2019-03-26T19:34:27.688Z,6.77
2019-03-26T19:36:57.139Z,6.50
2019-03-26T19:39:26.622Z,6.53
2019-03-26T19:41:56.094Z,6.27
2019-03-26T19:44:25.559Z,5.87
2019-03-26T19:46:55.055Z,5.90
2019-03-26T19:49:24.489Z,6.10
2019-03-26T19:51:53.945Z,7.07
2019-03-26T19:54:23.396Z,6.03
2019-03-26T19:56:52.839Z,7.93
2019-03-26T19:59:22.281Z,7.13
2019-03-26T20:01:52.046Z,6.13
2019-03-26T20:04:21.485Z,6.53
2019-03-26T20:06:50.935Z,6.67
2019-03-26T20:09:20.367Z,7.20
2019-03-26T20:11:49.833Z,6.63
2019-03-26T20:14:19.277Z,6.87
2019-03-26T20:16:48.700Z,6.53
2019-03-26T20:19:18.150Z,6.07
2019-03-26T20:21:49.826Z,6.43
2019-03-26T20:24:18.813Z,6.23
2019-03-26T20:26:48.277Z,7.17
2019-03-26T20:29:17.771Z,6.20
2019-03-26T20:31:47.215Z,6.00
2019-03-26T20:34:16.968Z,6.40
2019-03-26T20:36:46.401Z,6.73
2019-03-26T20:39:15.852Z,6.17
2019-03-26T20:41:45.283Z,6.10
2019-03-26T20:44:14.751Z,6.00
2019-03-26T20:46:44.183Z,6.13
2019-03-26T20:49:13.744Z,5.90
2019-03-26T20:51:43.216Z,6.53
2019-03-26T20:54:12.721Z,6.83
2019-03-26T20:56:42.162Z,6.07
2019-03-26T20:59:11.733Z,6.17
2019-03-26T21:01:41.170Z,5.60
2019-03-26T21:04:10.621Z,6.03
2019-03-26T21:06:40.054Z,6.00
2019-03-26T21:09:09.495Z,5.47
2019-03-26T21:11:38.929Z,5.07
2019-03-26T21:14:08.379Z,5.60
2019-03-26T21:16:37.811Z,5.70
2019-03-26T21:19:07.264Z,5.80
2019-03-26T21:21:36.699Z,6.03
2019-03-26T21:24:06.479Z,5.97
2019-03-26T21:26:35.912Z,5.87
2019-03-26T21:29:05.358Z,5.97
2019-03-26T21:31:34.796Z,5.73
2019-03-26T21:34:04.222Z,4.97
2019-03-26T21:36:33.648Z,6.13
2019-03-26T21:39:04.762Z,5.63
2019-03-26T21:41:34.202Z,5.87
2019-03-26T21:44:04.845Z,6.10
2019-03-26T21:46:34.355Z,5.63
2019-03-26T21:49:03.804Z,5.83
2019-03-26T21:51:33.237Z,5.73
2019-03-26T21:54:02.681Z,6.57
2019-03-26T21:56:32.109Z,6.83
2019-03-26T21:59:01.547Z,6.07
2019-03-26T22:01:30.980Z,6.20
2019-03-26T22:04:00.420Z,7.37
2019-03-26T22:06:29.920Z,6.43
2019-03-26T22:08:59.366Z,6.73
2019-03-26T22:11:30.438Z,6.03
2019-03-26T22:13:59.887Z,6.17
2019-03-26T22:16:29.318Z,6.37
2019-03-26T22:18:58.758Z,6.43
2019-03-26T22:21:28.192Z,7.03
2019-03-26T22:23:57.644Z,7.40
2019-03-26T22:26:27.070Z,6.53
2019-03-26T22:28:56.528Z,6.37
2019-03-26T22:31:25.980Z,5.60
2019-03-26T22:33:55.397Z,6.60
2019-03-26T22:36:24.849Z,5.97
2019-03-26T22:38:54.274Z,6.40
2019-03-26T22:41:23.708Z,6.00
2019-03-26T22:43:55.067Z,6.37
2019-03-26T22:46:24.309Z,6.10
2019-03-26T22:48:53.753Z,6.10
2019-03-26T22:51:23.184Z,6.53
2019-03-26T22:53:52.635Z,6.17
2019-03-26T22:56:22.081Z,5.50
2019-03-26T22:58:51.510Z,5.30
2019-03-26T23:01:21.474Z,5.13
2019-03-26T23:03:51.253Z,5.57
2019-03-26T23:06:20.681Z,5.40
2019-03-26T23:08:50.116Z,5.37
2019-03-26T23:11:19.884Z,5.50
2019-03-26T23:13:49.586Z,6.00
2019-03-26T23:16:19.024Z,5.67
2019-03-26T23:18:48.464Z,6.47
2019-03-26T23:21:19.884Z,6.10
2019-03-26T23:23:49.068Z,6.10
2019-03-26T23:26:18.503Z,5.77
2019-03-26T23:28:47.942Z,6.10
2019-03-26T23:31:17.368Z,5.80
2019-03-26T23:33:46.820Z,6.00
2019-03-26T23:36:16.255Z,5.90
2019-03-26T23:38:45.702Z,5.47
2019-03-26T23:41:15.211Z,6.17
2019-03-26T23:43:44.647Z,5.97
2019-03-26T23:46:14.084Z,6.40
2019-03-26T23:48:43.513Z,6.03
2019-03-26T23:51:12.964Z,6.80
2019-03-26T23:53:42.394Z,5.93
2019-03-26T23:56:11.840Z,6.10
2019-03-26T23:58:41.268Z,5.90
